Time;durP1;ratioP1;P1;durP2;ratioP2;P2;SDS_P1;SDS_P2;PMS_P1;PMS_P2;Temp;Humidity;BMP_temperature;BMP_pressure;BME280_temperature;BME280_humidity;BME280_pressure;Samples;Min_cycle;Max_cycle;Signal;HPM_P1;HPM_P2
2022/07/11 00:01:28;;;;;;;;;;;;;;;24.51;39.23;100205.59;5018198;28;20355;-79
2022/07/11 00:03:54;;;;;;;;;;;;;;;24.51;39.22;100203.69;5000770;28;19922;-79
2022/07/11 00:06:19;;;;;;;;;;;;;;;24.51;38.99;100208.34;5018631;28;20279;-80
2022/07/11 00:08:44;;;;;;;;;;;;;;;24.51;39.17;100213.78;5017741;28;20010;-78
2022/07/11 00:11:09;;;;;;;;;;;;;;;24.51;38.96;100213.78;5018297;28;19913;-78
2022/07/11 00:13:35;;;;;;;;;;;;;;;24.50;39.00;100217.63;5017998;28;19920;-80
2022/07/11 00:16:00;;;;;;;;;;;;;;;24.49;38.95;100216.81;5018020;28;20341;-78
2022/07/11 00:18:25;;;;;;;;;;;;;;;24.49;39.02;100214.06;5017954;28;19929;-78
2022/07/11 00:20:50;;;;;;;;;;;;;;;24.49;38.69;100221.44;5018432;28;20360;-79
2022/07/11 00:23:16;;;;;;;;;;;;;;;24.48;38.94;100226.09;5017477;28;19998;-81
2022/07/11 00:25:41;;;;;;;;;;;;;;;24.49;38.82;100226.91;5017955;28;19913;-79
2022/07/11 00:28:07;;;;;;;;;;;;;;;24.48;38.56;100234.28;5017895;28;20314;-78
2022/07/11 00:30:32;;;;;;;;;;;;;;;24.47;38.71;100232.63;5017907;28;19925;-81
2022/07/11 00:32:58;;;;;;;;;;;;;;;24.48;38.25;100234.28;5000761;28;19913;-77
2022/07/11 00:35:23;;;;;;;;;;;;;;;24.48;38.40;100231.56;5017397;28;20375;-77
2022/07/11 00:37:48;;;;;;;;;;;;;;;24.48;38.39;100237.03;5017888;28;20000;-80
2022/07/11 00:40:13;;;;;;;;;;;;;;;24.46;38.43;100238.41;5016964;28;19983;-78
2022/07/11 00:42:39;;;;;;;;;;;;;;;24.47;38.16;100237.28;5016473;28;20009;-78
2022/07/11 00:45:04;;;;;;;;;;;;;;;24.47;38.32;100237.28;5017957;28;19921;-81
2022/07/11 00:47:29;;;;;;;;;;;;;;;24.46;38.01;100233.75;5017557;28;19920;-76
2022/07/11 00:49:55;;;;;;;;;;;;;;;24.47;38.12;100227.19;5017129;28;19914;-78
2022/07/11 00:52:20;;;;;;;;;;;;;;;24.46;38.15;100235.69;5016201;28;19948;-81
2022/07/11 00:54:45;;;;;;;;;;;;;;;24.46;38.09;100233.75;5017279;28;20398;-78
2022/07/11 00:57:10;;;;;;;;;;;;;;;24.45;37.73;100234.03;5017466;28;19913;-79
2022/07/11 00:59:36;;;;;;;;;;;;;;;24.45;37.87;100240.31;5017530;28;19913;-81
2022/07/11 01:02:02;;;;;;;;;;;;;;;24.45;37.78;100243.03;5016618;28;19929;-76
2022/07/11 01:04:27;;;;;;;;;;;;;;;24.45;37.87;100243.03;5017200;28;19913;-78
2022/07/11 01:06:52;;;;;;;;;;;;;;;24.44;37.75;100238.69;5016203;28;20348;-81
2022/07/11 01:09:17;;;;;;;;;;;;;;;24.44;37.74;100244.16;5017249;28;19936;-78
2022/07/11 01:11:43;;;;;;;;;;;;;;;24.43;37.72;100239.78;5016832;28;20295;-78
2022/07/11 01:14:08;;;;;;;;;;;;;;;24.45;37.64;100243.03;5017961;28;19913;-80
2022/07/11 01:16:33;;;;;;;;;;;;;;;24.42;37.74;100235.41;5016922;28;20342;-78
2022/07/11 01:18:58;;;;;;;;;;;;;;;24.44;37.44;100235.97;5016916;28;20382;-78
2022/07/11 01:21:25;;;;;;;;;;;;;;;24.43;37.42;100231.59;5016678;28;19913;-81
2022/07/11 01:23:51;;;;;;;;;;;;;;;24.43;37.26;100228.84;5015775;28;19936;-78
2022/07/11 01:26:16;;;;;;;;;;;;;;;24.44;37.11;100227.78;5016719;28;20368;-78
2022/07/11 01:28:42;;;;;;;;;;;;;;;24.44;37.27;100224.19;5017047;28;19959;-81
2022/07/11 01:31:07;;;;;;;;;;;;;;;24.42;37.15;100220.94;5016403;28;20008;-78
2022/07/11 01:33:32;;;;;;;;;;;;;;;24.42;37.17;100232.69;5016989;28;19917;-77
2022/07/11 01:35:59;;;;;;;;;;;;;;;24.43;37.14;100228.84;5016819;28;20012;-82
2022/07/11 01:38:24;;;;;;;;;;;;;;;24.41;37.25;100242.00;5016669;28;19953;-78
2022/07/11 01:40:50;;;;;;;;;;;;;;;24.41;37.05;100242.00;5016905;28;20284;-78
2022/07/11 01:43:15;;;;;;;;;;;;;;;24.40;37.08;100245.00;5016678;28;19913;-80
2022/07/11 01:45:41;;;;;;;;;;;;;;;24.40;37.03;100256.72;5016777;28;19913;-77
2022/07/11 01:48:06;;;;;;;;;;;;;;;24.42;36.86;100253.72;5016723;28;19914;-79
2022/07/11 01:50:31;;;;;;;;;;;;;;;24.40;36.92;100255.94;5016176;28;20356;-81
2022/07/11 01:52:57;;;;;;;;;;;;;;;24.41;36.87;100261.09;5016126;28;19914;-77
2022/07/11 01:55:22;;;;;;;;;;;;;;;24.40;36.87;100248.53;5016652;28;20296;-78
2022/07/11 01:57:47;;;;;;;;;;;;;;;24.39;36.76;100257.84;5016788;28;19914;-81
2022/07/11 02:00:13;;;;;;;;;;;;;;;24.40;36.92;100272.31;5016359;28;20347;-77
2022/07/11 02:02:38;;;;;;;;;;;;;;;24.40;36.80;100270.38;5017088;28;19928;-79
2022/07/11 02:05:03;;;;;;;;;;;;;;;24.39;36.97;100271.50;5016196;28;19996;-78
2022/07/11 02:10:12;;;;;;;;;;;;;;;24.38;36.80;100270.66;5014920;28;19928;-78
2022/07/11 02:12:38;;;;;;;;;;;;;;;24.38;36.96;100267.94;5015195;28;20008;-81
2022/07/11 02:15:03;;;;;;;;;;;;;;;24.32;36.68;100258.16;5015647;28;19914;-78
2022/07/11 02:17:28;;;;;;;;;;;;;;;24.38;36.74;100267.13;5015737;28;19914;-80
2022/07/11 02:19:57;;;;;;;;;;;;;;;24.37;36.91;100265.50;5015421;28;19913;-83
2022/07/11 02:22:22;;;;;;;;;;;;;;;24.36;36.95;100272.88;5015804;28;19919;-77
2022/07/11 02:24:47;;;;;;;;;;;;;;;24.37;36.87;100273.72;5015415;28;20330;-79
2022/07/11 02:27:13;;;;;;;;;;;;;;;24.36;36.92;100272.88;5015013;28;19917;-78
2022/07/11 02:29:38;;;;;;;;;;;;;;;24.37;37.11;100279.16;5015035;28;19920;-78
2022/07/11 02:32:04;;;;;;;;;;;;;;;24.37;36.96;100281.91;5015468;28;19960;-81
2022/07/11 02:34:29;;;;;;;;;;;;;;;24.37;37.20;100273.72;5002448;28;20399;-79
2022/07/11 02:36:55;;;;;;;;;;;;;;;24.36;36.97;100283.78;4995544;28;19972;-77
2022/07/11 02:39:20;;;;;;;;;;;;;;;24.36;37.05;100285.72;4995808;28;19913;-80
2022/07/11 02:41:45;;;;;;;;;;;;;;;24.36;37.39;100280.25;5008542;28;20055;-76
2022/07/11 02:44:10;;;;;;;;;;;;;;;24.35;37.43;100275.88;5015099;28;19913;-78
2022/07/11 02:46:35;;;;;;;;;;;;;;;24.35;37.35;100276.72;5014939;28;20371;-81
2022/07/11 02:49:01;;;;;;;;;;;;;;;24.35;37.23;100281.34;5014405;28;19914;-78
2022/07/11 02:51:26;;;;;;;;;;;;;;;24.36;37.62;100285.72;5014930;28;20140;-79
2022/07/11 02:53:52;;;;;;;;;;;;;;;24.35;37.70;100286.81;5014727;28;20275;-78
2022/07/11 02:56:18;;;;;;;;;;;;;;;24.37;37.49;100290.09;5015068;28;19914;-77
2022/07/11 02:58:43;;;;;;;;;;;;;;;24.36;37.65;100292.00;5014342;28;19920;-79
2022/07/11 03:01:08;;;;;;;;;;;;;;;24.35;37.79;100297.72;5014629;28;19914;-78
2022/07/11 03:03:33;;;;;;;;;;;;;;;24.35;37.93;100300.47;5015222;28;19975;-78
2022/07/11 03:05:59;;;;;;;;;;;;;;;24.35;38.07;100304.03;5014702;28;19914;-81
2022/07/11 03:08:24;;;;;;;;;;;;;;;24.35;37.96;100303.19;5014575;28;19914;-75
2022/07/11 03:10:49;;;;;;;;;;;;;;;24.36;38.12;100299.38;5014709;28;20249;-79
2022/07/11 03:13:14;;;;;;;;;;;;;;;24.34;38.33;100301.56;5014202;28;19921;-79
2022/07/11 03:15:40;;;;;;;;;;;;;;;24.34;38.56;100307.84;5014747;28;19940;-78
2022/07/11 03:18:05;;;;;;;;;;;;;;;24.35;38.44;100314.13;5014805;28;19956;-80
2022/07/11 03:20:31;;;;;;;;;;;;;;;24.32;38.97;100303.78;4996769;28;20295;-77
2022/07/11 03:22:56;;;;;;;;;;;;;;;24.33;39.01;100302.66;5014555;28;19914;-78
2022/07/11 03:25:21;;;;;;;;;;;;;;;24.31;39.42;100300.22;5014938;28;20421;-83
2022/07/11 03:27:46;;;;;;;;;;;;;;;24.30;39.10;100300.50;5018212;28;19920;-76
2022/07/11 03:30:14;;;;;;;;;;;;;;;24.33;39.15;100305.41;5018305;28;19913;-79
2022/07/11 03:32:39;;;;;;;;;;;;;;;24.34;39.31;100309.78;5018229;28;19940;-78
2022/07/11 03:37:49;;;;;;;;;;;;;;;24.38;39.09;100302.63;5019212;28;19963;-79
2022/07/11 03:40:14;;;;;;;;;;;;;;;24.41;39.00;100307.53;5018953;28;19996;-81
2022/07/11 03:42:40;;;;;;;;;;;;;;;24.43;39.11;100302.59;5018905;28;19927;-78
2022/07/11 03:45:05;;;;;;;;;;;;;;;24.37;39.34;100299.09;5018512;28;19959;-78
2022/07/11 03:47:32;;;;;;;;;;;;;;;24.43;39.47;100308.06;5018244;28;19920;-80
2022/07/11 03:49:57;;;;;;;;;;;;;;;24.37;39.53;100306.47;5018277;28;20375;-78
2022/07/11 03:52:22;;;;;;;;;;;;;;;24.38;39.63;100300.72;5018931;28;19932;-78
2022/07/11 03:54:47;;;;;;;;;;;;;;;24.31;39.72;100302.94;5018350;28;20252;-80
2022/07/11 03:57:13;;;;;;;;;;;;;;;24.32;39.92;100306.50;5018417;28;20037;-78
2022/07/11 03:59:38;;;;;;;;;;;;;;;24.37;39.70;100312.75;5018420;28;19983;-78
2022/07/11 04:02:03;;;;;;;;;;;;;;;24.31;39.95;100307.59;5000390;28;19921;-81
2022/07/11 04:04:29;;;;;;;;;;;;;;;24.30;40.04;100308.69;5018167;28;19913;-78
2022/07/11 04:06:54;;;;;;;;;;;;;;;24.35;40.16;100308.66;5018083;28;20272;-78
2022/07/11 04:09:19;;;;;;;;;;;;;;;24.43;39.80;100308.06;5017997;28;19913;-81
2022/07/11 04:11:44;;;;;;;;;;;;;;;24.42;39.98;100308.34;5017819;28;20378;-78
2022/07/11 04:14:10;;;;;;;;;;;;;;;24.44;39.92;100300.69;5017440;28;19996;-78
2022/07/11 04:16:35;;;;;;;;;;;;;;;24.36;40.20;100304.84;5017598;28;19968;-80
2022/07/11 04:19:00;;;;;;;;;;;;;;;24.44;40.21;100304.25;5018350;28;19919;-76
2022/07/11 04:21:26;;;;;;;;;;;;;;;24.33;40.62;100306.19;5018386;28;19949;-81
2022/07/11 04:23:51;;;;;;;;;;;;;;;24.33;40.76;100308.13;5017982;28;19920;-78
2022/07/11 04:26:16;;;;;;;;;;;;;;;24.38;40.63;100306.19;5018245;28;19913;-77
2022/07/11 04:28:42;;;;;;;;;;;;;;;24.41;40.83;100318.47;5018318;28;19979;-79
2022/07/11 04:31:07;;;;;;;;;;;;;;;24.44;40.66;100312.44;5017644;28;19995;-81
2022/07/11 04:33:32;;;;;;;;;;;;;;;24.45;40.96;100311.31;5017814;28;19917;-78
2022/07/11 04:35:57;;;;;;;;;;;;;;;24.52;41.07;100314.56;5017972;28;20471;-77
2022/07/11 04:38:23;;;;;;;;;;;;;;;24.54;41.10;100306.94;5016556;28;19917;-81
2022/07/11 04:40:49;;;;;;;;;;;;;;;24.52;41.00;100309.09;5016476;28;19918;-78
2022/07/11 04:43:14;;;;;;;;;;;;;;;24.48;41.35;100310.78;5017502;28;19963;-79
2022/07/11 04:45:39;;;;;;;;;;;;;;;24.58;41.23;100317.28;5017581;28;19996;-80
2022/07/11 04:48:05;;;;;;;;;;;;;;;24.53;41.59;100305.28;5017330;28;19941;-78
2022/07/11 04:50:30;;;;;;;;;;;;;;;24.61;41.18;100314.00;5017687;28;19920;-77
2022/07/11 04:52:56;;;;;;;;;;;;;;;24.58;41.51;100311.81;5017322;28;19969;-79
2022/07/11 04:55:21;;;;;;;;;;;;;;;24.65;41.46;100315.09;5016998;28;19968;-81
2022/07/11 04:57:46;;;;;;;;;;;;;;;24.61;41.43;100309.38;4999008;28;19917;-77
2022/07/11 05:00:12;;;;;;;;;;;;;;;24.73;41.32;100300.78;5017254;28;19959;-78
2022/07/11 05:02:37;;;;;;;;;;;;;;;24.65;41.38;100306.88;5017644;28;20368;-80
2022/07/11 05:05:02;;;;;;;;;;;;;;;24.52;41.80;100303.63;5017371;28;19921;-77
2022/07/11 05:07:28;;;;;;;;;;;;;;;24.71;41.21;100298.34;5017525;28;19940;-80
2022/07/11 05:09:53;;;;;;;;;;;;;;;24.60;41.68;100304.19;5017607;28;19917;-81
2022/07/11 05:12:20;;;;;;;;;;;;;;;24.62;41.61;100312.91;5016995;28;19921;-78
2022/07/11 05:14:45;;;;;;;;;;;;;;;24.63;41.56;100317.25;5016939;28;19960;-76
2022/07/11 05:17:10;;;;;;;;;;;;;;;24.69;41.23;100318.88;5016866;28;20383;-78
2022/07/11 05:19:35;;;;;;;;;;;;;;;24.69;41.34;100314.22;5016435;28;19966;-79
2022/07/11 05:22:01;;;;;;;;;;;;;;;24.71;40.94;100308.47;5016293;28;20372;-77
2022/07/11 05:24:26;;;;;;;;;;;;;;;24.58;41.27;100314.56;5016360;28;19913;-77
2022/07/11 05:26:51;;;;;;;;;;;;;;;24.57;41.55;100312.94;5015970;28;19917;-80
2022/07/11 05:29:16;;;;;;;;;;;;;;;24.64;41.01;100306.03;5015746;28;20270;-77
2022/07/11 05:31:42;;;;;;;;;;;;;;;24.71;40.97;100312.00;5016148;28;19913;-76
2022/07/11 05:34:08;;;;;;;;;;;;;;;24.75;40.77;100312.28;5016787;28;19917;-77
2022/07/11 05:36:33;;;;;;;;;;;;;;;24.83;40.76;100314.38;4998708;28;20383;-80
2022/07/11 05:38:58;;;;;;;;;;;;;;;24.62;41.17;100319.19;4999535;28;20007;-78
2022/07/11 05:41:24;;;;;;;;;;;;;;;24.58;41.14;100322.75;5015475;28;19917;-77
2022/07/11 05:43:49;;;;;;;;;;;;;;;24.68;41.18;100318.06;5015839;28;19917;-78
2022/07/11 05:46:14;;;;;;;;;;;;;;;24.61;40.88;100324.94;5015710;28;19968;-79
2022/07/11 05:48:39;;;;;;;;;;;;;;;24.80;40.81;100323.19;5015400;28;19914;-77
2022/07/11 05:51:05;;;;;;;;;;;;;;;24.69;40.61;100318.88;5015928;28;19913;-77
2022/07/11 05:53:30;;;;;;;;;;;;;;;24.77;40.53;100325.63;5015647;28;20379;-79
2022/07/11 05:55:55;;;;;;;;;;;;;;;24.75;40.87;100323.22;5015241;28;19913;-79
2022/07/11 05:58:21;;;;;;;;;;;;;;;24.72;40.52;100326.50;5015304;28;19920;-76
2022/07/11 06:00:46;;;;;;;;;;;;;;;24.76;40.40;100329.47;5015472;28;19913;-76
2022/07/11 06:03:11;;;;;;;;;;;;;;;24.77;40.33;100337.41;5015312;28;19921;-79
2022/07/11 06:05:37;;;;;;;;;;;;;;;24.83;40.28;100329.97;5015472;28;20404;-80
2022/07/11 06:10:46;;;;;;;;;;;;;;;24.87;40.23;100328.28;5015677;28;20295;-78
2022/07/11 06:13:11;;;;;;;;;;;;;;;24.92;39.99;100333.72;5015671;28;19914;-78
2022/07/11 06:15:37;;;;;;;;;;;;;;;24.78;40.10;100336.28;5015367;28;19914;-78
2022/07/11 06:18:02;;;;;;;;;;;;;;;24.85;40.08;100322.31;5015725;28;19914;-79
2022/07/11 06:20:27;;;;;;;;;;;;;;;24.78;39.90;100344.47;5015180;28;19968;-77
2022/07/11 06:22:53;;;;;;;;;;;;;;;24.80;40.07;100336.84;5015020;28;20261;-77
2022/07/11 06:25:18;;;;;;;;;;;;;;;24.97;39.86;100336.41;5014598;28;19913;-77
2022/07/11 06:27:44;;;;;;;;;;;;;;;24.80;40.02;100347.78;5015007;28;19948;-79
2022/07/11 06:30:09;;;;;;;;;;;;;;;24.84;40.11;100348.03;5014905;28;19913;-78
2022/07/11 06:32:34;;;;;;;;;;;;;;;24.98;40.04;100359.13;5015548;28;20360;-76
2022/07/11 06:35:00;;;;;;;;;;;;;;;25.02;39.46;100347.31;5002797;28;19913;-79
2022/07/11 06:37:25;;;;;;;;;;;;;;;25.05;39.28;100351.41;4995132;28;19971;-77
2022/07/11 06:39:50;;;;;;;;;;;;;;;25.08;39.58;100351.66;4995017;28;20380;-80
2022/07/11 06:42:15;;;;;;;;;;;;;;;25.07;39.35;100349.19;5012360;28;19921;-77
2022/07/11 06:44:41;;;;;;;;;;;;;;;25.04;39.35;100363.44;5014908;28;19914;-78
2022/07/11 06:47:06;;;;;;;;;;;;;;;24.99;39.39;100367.03;5014891;28;20248;-78
2022/07/11 06:49:31;;;;;;;;;;;;;;;25.11;39.05;100362.03;5014426;28;19913;-78
2022/07/11 06:51:57;;;;;;;;;;;;;;;25.07;39.32;100360.13;5014604;28;19914;-79
2022/07/11 06:54:22;;;;;;;;;;;;;;;24.91;39.22;100364.91;5014826;28;19956;-80
2022/07/11 06:56:47;;;;;;;;;;;;;;;24.91;39.29;100364.91;4997070;28;19988;-78
2022/07/11 06:59:12;;;;;;;;;;;;;;;24.92;38.23;100361.06;5014770;28;20348;-78
2022/07/11 07:01:38;;;;;;;;;;;;;;;25.00;38.47;100371.41;5013989;28;19936;-79
2022/07/11 07:04:03;;;;;;;;;;;;;;;24.99;38.41;100372.50;5015009;28;19926;-80
2022/07/11 07:06:28;;;;;;;;;;;;;;;24.99;38.58;100368.94;5014949;28;20426;-77
2022/07/11 07:08:53;;;;;;;;;;;;;;;25.00;38.46;100378.78;5014802;28;19917;-77
2022/07/11 07:11:19;;;;;;;;;;;;;;;24.89;38.47;100381.59;5015449;28;19913;-79
2022/07/11 07:13:45;;;;;;;;;;;;;;;24.91;38.17;100382.13;5014799;28;19914;-79
2022/07/11 07:16:10;;;;;;;;;;;;;;;24.92;38.27;100374.72;5014310;28;19914;-81
2022/07/11 07:18:38;;;;;;;;;;;;;;;24.89;38.32;100367.94;5014735;28;19928;-78
2022/07/11 07:21:03;;;;;;;;;;;;;;;25.01;37.96;100385.88;5014536;28;20318;-76
2022/07/11 07:23:28;;;;;;;;;;;;;;;24.96;38.19;100377.72;5014763;28;19932;-77
2022/07/11 07:25:54;;;;;;;;;;;;;;;24.87;38.08;100377.50;5014702;28;19920;-79
2022/07/11 07:28:19;;;;;;;;;;;;;;;24.94;37.82;100378.00;5014813;28;20332;-78
2022/07/11 07:30:45;;;;;;;;;;;;;;;24.90;38.08;100374.19;5014672;28;20394;-77
2022/07/11 07:33:11;;;;;;;;;;;;;;;24.99;37.95;100371.69;4997267;28;19920;-78
2022/07/11 07:35:36;;;;;;;;;;;;;;;25.00;37.97;100378.78;5014870;28;20004;-78
2022/07/11 07:38:01;;;;;;;;;;;;;;;24.90;37.86;100379.66;5015239;28;19920;-78
2022/07/11 07:40:27;;;;;;;;;;;;;;;24.91;38.19;100382.13;5014935;28;19925;-79
2022/07/11 07:42:52;;;;;;;;;;;;;;;24.92;37.83;100378.28;5014631;28;20356;-79
2022/07/11 07:45:17;;;;;;;;;;;;;;;24.90;37.90;100375.00;5013917;28;20372;-76
2022/07/11 07:47:43;;;;;;;;;;;;;;;25.00;38.07;100376.06;5013841;28;19917;-77
2022/07/11 07:50:08;;;;;;;;;;;;;;;25.08;37.95;100362.59;5014499;28;19909;-80
2022/07/11 07:52:34;;;;;;;;;;;;;;;25.01;37.93;100367.56;5014599;28;20008;-80
2022/07/11 07:54:59;;;;;;;;;;;;;;;25.01;37.63;100369.47;5013323;28;19945;-77
2022/07/11 07:57:24;;;;;;;;;;;;;;;25.09;37.43;100366.13;5014681;28;20360;-75
2022/07/11 07:59:49;;;;;;;;;;;;;;;25.13;37.60;100359.00;5014322;28;19913;-77
2022/07/11 08:02:15;;;;;;;;;;;;;;;25.09;37.63;100357.94;5014524;28;19922;-79
2022/07/11 08:04:41;;;;;;;;;;;;;;;25.13;37.63;100356.28;5014607;28;20046;-80
2022/07/11 08:07:06;;;;;;;;;;;;;;;25.15;37.51;100364.16;5014094;28;20335;-78
2022/07/11 08:09:31;;;;;;;;;;;;;;;25.08;37.68;100364.53;5014367;28;20320;-78
2022/07/11 08:11:57;;;;;;;;;;;;;;;25.04;37.74;100369.75;5015175;28;20320;-76
2022/07/11 08:14:22;;;;;;;;;;;;;;;25.11;37.41;100369.38;5017572;28;19913;-78
2022/07/11 08:16:47;;;;;;;;;;;;;;;25.05;37.60;100360.41;5017344;28;20274;-79
2022/07/11 08:19:13;;;;;;;;;;;;;;;25.14;37.31;100374.28;5015782;28;20364;-79
2022/07/11 08:21:38;;;;;;;;;;;;;;;25.14;37.47;100385.22;5016955;28;19967;-77
2022/07/11 08:24:04;;;;;;;;;;;;;;;25.23;37.37;100382.69;5016893;28;19959;-75
2022/07/11 08:26:29;;;;;;;;;;;;;;;25.26;37.38;100382.97;5017607;28;19964;-78
2022/07/11 08:28:55;;;;;;;;;;;;;;;25.23;37.29;100389.00;5017532;28;20336;-78
2022/07/11 08:31:20;;;;;;;;;;;;;;;25.17;37.31;100389.34;5015943;28;19972;-78
2022/07/11 08:33:46;;;;;;;;;;;;;;;25.10;37.40;100384.19;5017318;28;20004;-79
2022/07/11 08:36:11;;;;;;;;;;;;;;;25.18;37.56;100380.00;4998305;28;20352;-77
2022/07/11 08:38:37;;;;;;;;;;;;;;;25.16;37.27;100377.56;4997208;28;19914;-78
2022/07/11 08:41:03;;;;;;;;;;;;;;;25.15;37.18;100383.31;5004712;28;19917;-76
2022/07/11 08:43:29;;;;;;;;;;;;;;;25.27;37.19;100375.59;5018034;28;19966;-78
2022/07/11 08:45:55;;;;;;;;;;;;;;;25.27;37.31;100379.16;5016971;28;20016;-77
2022/07/11 08:48:20;;;;;;;;;;;;;;;25.26;37.15;100374.78;5017122;28;19913;-79
2022/07/11 08:50:45;;;;;;;;;;;;;;;25.24;37.25;100378.88;4998923;28;20483;-78
2022/07/11 08:53:10;;;;;;;;;;;;;;;25.18;37.40;100378.09;5016387;28;19913;-77
2022/07/11 08:55:36;;;;;;;;;;;;;;;25.29;37.10;100382.41;5017017;28;20366;-78
2022/07/11 08:58:01;;;;;;;;;;;;;;;25.28;37.06;100380.78;4999665;28;19913;-79
2022/07/11 09:00:27;;;;;;;;;;;;;;;25.21;37.22;100391.19;5016699;28;19914;-79
2022/07/11 09:02:52;;;;;;;;;;;;;;;25.24;37.09;100396.09;5016741;28;19967;-80
2022/07/11 09:05:17;;;;;;;;;;;;;;;25.30;37.08;100395.00;5016597;28;19913;-78
2022/07/11 09:07:43;;;;;;;;;;;;;;;25.27;37.01;100389.28;5016569;28;20386;-77
2022/07/11 09:10:09;;;;;;;;;;;;;;;25.28;37.17;100397.22;5017104;28;19914;-78
2022/07/11 09:12:34;;;;;;;;;;;;;;;25.25;37.14;100397.78;5016546;28;19913;-78
2022/07/11 09:15:00;;;;;;;;;;;;;;;25.36;37.21;100390.28;5016163;28;20291;-78
2022/07/11 09:17:30;;;;;;;;;;;;;;;25.29;37.39;100404.28;5016138;28;19924;-78
2022/07/11 09:19:55;;;;;;;;;;;;;;;25.17;37.50;100401.06;5016213;28;19913;-79
2022/07/11 09:25:21;;;;;;;;;;;;;;;25.19;37.60;100396.13;5016024;28;20052;-78
2022/07/11 09:28:06;;;;;;;;;;;;;;;25.27;37.27;100389.28;5016098;28;20384;-78
2022/07/11 09:30:42;;;;;;;;;;;;;;;25.25;37.50;100384.09;5016345;28;19914;-77
2022/07/11 09:33:12;;;;;;;;;;;;;;;25.22;37.58;100381.91;5015821;28;19921;-77
2022/07/11 09:35:38;;;;;;;;;;;;;;;25.31;37.32;100384.88;5016519;28;19921;-77
2022/07/11 09:38:04;;;;;;;;;;;;;;;25.27;37.05;100389.28;5015981;28;19917;-77
2022/07/11 09:40:29;;;;;;;;;;;;;;;25.35;36.97;100390.56;5015420;28;19917;-78
2022/07/11 09:42:55;;;;;;;;;;;;;;;25.26;37.29;100393.09;5015902;28;19920;-78
2022/07/11 09:45:21;;;;;;;;;;;;;;;25.18;37.46;100397.25;5015674;28;20271;-78
2022/07/11 09:47:46;;;;;;;;;;;;;;;25.23;37.51;100399.94;5015819;28;19921;-79
2022/07/11 09:50:12;;;;;;;;;;;;;;;25.14;37.87;100396.16;5015677;28;19944;-78
2022/07/11 09:52:38;;;;;;;;;;;;;;;25.26;37.94;100385.72;5015208;28;20005;-77
2022/07/11 09:55:05;;;;;;;;;;;;;;;25.22;38.09;100392.84;5015352;28;19945;-78
2022/07/11 09:57:34;;;;;;;;;;;;;;;25.22;37.88;100392.84;5015528;28;19914;-78
2022/07/11 09:59:59;;;;;;;;;;;;;;;25.04;38.47;100393.50;5015668;28;20287;-78
2022/07/11 10:02:25;;;;;;;;;;;;;;;24.91;38.26;100393.06;5015601;28;19933;-79
2022/07/11 10:04:50;;;;;;;;;;;;;;;24.93;38.54;100396.31;5014340;28;20279;-79
2022/07/11 10:07:16;;;;;;;;;;;;;;;24.89;38.55;100406.19;5014248;28;19914;-79
2022/07/11 10:09:41;;;;;;;;;;;;;;;24.79;38.87;100405.44;5016591;28;19920;-77
2022/07/11 10:12:07;;;;;;;;;;;;;;;24.77;38.87;100403.00;5015853;28;20368;-77
2022/07/11 10:14:34;;;;;;;;;;;;;;;24.78;39.06;100395.59;5015638;28;19960;-78
2022/07/11 10:17:02;;;;;;;;;;;;;;;24.78;38.95;100393.69;5014597;28;19914;-78
2022/07/11 10:19:33;;;;;;;;;;;;;;;24.77;39.20;100396.69;5014153;28;19925;-78
2022/07/11 10:21:58;;;;;;;;;;;;;;;24.78;38.99;100390.13;5015689;28;19948;-78
2022/07/11 10:24:24;;;;;;;;;;;;;;;24.77;39.03;100394.78;5015592;28;19917;-79
2022/07/11 10:26:58;;;;;;;;;;;;;;;24.80;38.85;100391.50;5014880;28;19919;-80
2022/07/11 10:29:25;;;;;;;;;;;;;;;24.84;38.85;100397.22;5015496;28;20012;-79
2022/07/11 10:32:09;;;;;;;;;;;;;;;24.88;38.75;100398.28;5013841;28;19913;-79
2022/07/11 10:34:34;;;;;;;;;;;;;;;24.85;38.42;100405.13;5012233;28;19914;-79
2022/07/11 10:37:01;;;;;;;;;;;;;;;25.03;38.17;100409.09;4995226;28;19918;-77
2022/07/11 10:39:29;;;;;;;;;;;;;;;25.02;38.29;100410.19;4995542;28;20012;-78
2022/07/11 10:41:55;;;;;;;;;;;;;;;25.05;37.96;100408.81;4993883;28;19918;-77
2022/07/11 10:44:20;;;;;;;;;;;;;;;25.15;37.94;100408.75;4995449;28;20283;-77
2022/07/11 10:46:45;;;;;;;;;;;;;;;25.13;37.77;100421.91;4995151;28;20009;-78
2022/07/11 10:49:14;;;;;;;;;;;;;;;25.17;37.99;100422.97;4993892;28;19921;-78
2022/07/11 10:51:47;;;;;;;;;;;;;;;25.10;37.84;100431.47;4995587;28;19936;-78
2022/07/11 10:54:18;;;;;;;;;;;;;;;25.17;37.90;100422.97;4994950;28;20000;-79
2022/07/11 10:56:50;;;;;;;;;;;;;;;25.05;37.94;100408.81;4994906;28;19925;-79
2022/07/11 10:59:16;;;;;;;;;;;;;;;25.14;38.06;100417.25;4993810;28;19913;-81
2022/07/11 11:02:00;;;;;;;;;;;;;;;25.13;37.58;100416.44;4995200;28;19922;-80
2022/07/11 11:04:40;;;;;;;;;;;;;;;25.18;37.47;100408.19;4995453;28;19917;-80
2022/07/11 11:07:06;;;;;;;;;;;;;;;25.17;37.48;100413.94;4995664;28;19913;-78
2022/07/11 11:09:40;;;;;;;;;;;;;;;25.14;37.61;100400.84;4995387;28;19914;-79
2022/07/11 11:12:06;;;;;;;;;;;;;;;25.21;37.79;100407.59;4995762;28;19914;-78
2022/07/11 11:14:31;;;;;;;;;;;;;;;25.14;37.73;100390.69;4995460;28;19914;-79
2022/07/11 11:17:17;;;;;;;;;;;;;;;25.20;37.60;100405.16;4995064;28;20019;-79
2022/07/11 11:19:49;;;;;;;;;;;;;;;25.22;37.22;100413.91;4995265;28;19913;-79
2022/07/11 11:22:15;;;;;;;;;;;;;;;25.36;37.28;100409.44;4996013;28;19914;-78
2022/07/11 11:24:43;;;;;;;;;;;;;;;25.32;37.37;100411.13;4994846;28;20447;-78
2022/07/11 11:27:15;;;;;;;;;;;;;;;25.31;37.50;100404.00;4994982;28;20039;-79
2022/07/11 11:29:41;;;;;;;;;;;;;;;25.23;37.47;100410.06;4994758;28;19921;-79
2022/07/11 11:32:06;;;;;;;;;;;;;;;25.24;37.46;100407.03;4994720;28;20360;-80
2022/07/11 11:34:31;;;;;;;;;;;;;;;25.24;37.42;100407.03;4993820;28;19914;-77
2022/07/11 11:36:59;;;;;;;;;;;;;;;25.20;37.32;100405.97;4994710;28;19914;-76
2022/07/11 11:39:29;;;;;;;;;;;;;;;25.20;37.30;100411.44;4996555;28;19965;-76
2022/07/11 11:42:00;;;;;;;;;;;;;;;25.24;37.41;100412.50;4994021;28;19917;-78
2022/07/11 11:44:25;;;;;;;;;;;;;;;25.18;37.72;100421.03;4993746;28;19925;-78
2022/07/11 11:46:51;;;;;;;;;;;;;;;25.16;37.50;100421.31;4996068;28;19917;-76
2022/07/11 11:49:17;;;;;;;;;;;;;;;25.28;37.43;100419.09;4998259;28;19990;-76
2022/07/11 11:51:43;;;;;;;;;;;;;;;25.34;37.17;100417.13;4998538;28;19914;-77
2022/07/11 11:54:09;;;;;;;;;;;;;;;25.33;37.37;100420.13;4998392;28;19914;-76
2022/07/11 11:56:36;;;;;;;;;;;;;;;25.29;37.61;100426.16;4996536;28;19921;-79
2022/07/11 11:59:02;;;;;;;;;;;;;;;25.36;37.52;100419.56;4997052;28;19967;-80
2022/07/11 12:01:28;;;;;;;;;;;;;;;25.22;37.62;100411.97;4997882;28;19925;-80
2022/07/11 12:04:03;;;;;;;;;;;;;;;25.50;37.13;100409.59;4998243;28;19924;-79
2022/07/11 12:06:33;;;;;;;;;;;;;;;25.55;36.87;100406.81;4998208;28;19960;-79
2022/07/11 12:09:02;;;;;;;;;;;;;;;25.58;36.66;100422.66;4998170;28;19914;-80
2022/07/11 12:11:28;;;;;;;;;;;;;;;25.64;36.50;100409.75;4999060;28;19920;-80
2022/07/11 12:13:56;;;;;;;;;;;;;;;25.66;36.40;100413.84;4998044;28;20280;-79
2022/07/11 12:16:41;;;;;;;;;;;;;;;25.65;36.48;100417.66;4997814;28;19984;-80
2022/07/11 12:19:07;;;;;;;;;;;;;;;25.61;36.59;100405.69;4997865;28;19921;-78
2022/07/11 12:21:32;;;;;;;;;;;;;;;25.59;36.70;100407.84;4998220;28;19914;-78
2022/07/11 12:23:58;;;;;;;;;;;;;;;25.66;36.68;100402.88;4998193;28;20244;-80
2022/07/11 12:26:24;;;;;;;;;;;;;;;25.64;36.63;100409.75;4997905;28;19917;-80
2022/07/11 12:29:24;;;;;;;;;;;;;;;25.58;36.74;100419.94;4998046;28;19982;-79
2022/07/11 12:31:50;;;;;;;;;;;;;;;25.63;36.65;100417.16;4937208;29;19915;-76
2022/07/11 12:34:16;;;;;;;;;;;;;;;25.63;36.96;100414.41;4937591;29;19914;-77
2022/07/11 12:36:41;;;;;;;;;;;;;;;25.63;37.09;100413.56;4937177;29;19921;-78
2022/07/11 12:39:06;;;;;;;;;;;;;;;25.62;36.95;100412.75;4937349;29;20362;-78
2022/07/11 12:41:32;;;;;;;;;;;;;;;25.65;37.14;100417.66;4921411;29;20285;-78